createdAt,value
2022-09-22T00:01:34.830Z,3.30
2022-09-22T00:04:08.091Z,3.20
2022-09-22T00:06:47.732Z,2.80
2022-09-22T00:09:18.804Z,2.60
2022-09-22T00:12:21.604Z,2.90
2022-09-22T00:14:54.230Z,2.70
2022-09-22T00:17:23.412Z,2.80
2022-09-22T00:19:52.470Z,2.50
2022-09-22T00:22:20.218Z,3.00
2022-09-22T00:24:48.531Z,3.00
2022-09-22T00:27:16.625Z,3.10
2022-09-22T00:29:45.023Z,3.50
2022-09-22T00:32:13.827Z,3.60
2022-09-22T00:34:41.616Z,2.90
2022-09-22T00:37:09.387Z,2.80
2022-09-22T00:39:37.308Z,3.30
2022-09-22T00:42:05.246Z,2.70
2022-09-22T00:44:41.523Z,3.10
2022-09-22T00:47:18.763Z,3.00
2022-09-22T00:49:52.772Z,3.20
2022-09-22T00:52:26.024Z,2.80
2022-09-22T00:54:57.980Z,3.10
2022-09-22T00:57:29.937Z,3.20
2022-09-22T00:59:58.362Z,3.60
2022-09-22T01:02:26.106Z,2.90
2022-09-22T01:04:54.098Z,3.40
2022-09-22T01:07:25.348Z,3.50
2022-09-22T01:09:53.517Z,3.20
2022-09-22T01:12:23.434Z,3.80
2022-09-22T01:15:22.679Z,3.50
2022-09-22T01:18:30.573Z,4.00
2022-09-22T01:21:27.671Z,3.40
2022-09-22T01:24:14.638Z,3.40
2022-09-22T01:27:34.347Z,3.50
2022-09-22T01:30:16.441Z,3.70
2022-09-22T01:33:13.137Z,3.70
2022-09-22T01:35:56.316Z,3.70
2022-09-22T01:38:30.344Z,3.80
2022-09-22T01:41:08.331Z,3.50
2022-09-22T01:43:49.385Z,3.60
2022-09-22T01:46:43.124Z,3.70
2022-09-22T01:49:15.682Z,3.90
2022-09-22T01:51:52.049Z,3.80
2022-09-22T01:54:26.962Z,3.60
2022-09-22T01:57:10.400Z,4.20
2022-09-22T01:59:40.996Z,4.10
2022-09-22T02:02:22.711Z,3.90
2022-09-22T02:04:57.093Z,5.10
2022-09-22T02:07:33.935Z,4.50
2022-09-22T02:10:09.004Z,4.90
2022-09-22T02:12:37.751Z,4.80
2022-09-22T02:15:30.508Z,4.50
2022-09-22T02:18:03.279Z,4.50
2022-09-22T02:20:31.072Z,3.80
2022-09-22T02:22:59.627Z,4.30
2022-09-22T02:25:28.854Z,4.90
2022-09-22T02:27:58.325Z,4.70
2022-09-22T02:30:27.997Z,4.20
2022-09-22T02:32:56.985Z,4.80
2022-09-22T02:35:30.250Z,4.60
2022-09-22T02:38:10.335Z,4.80
2022-09-22T02:41:00.567Z,4.50
2022-09-22T02:43:38.607Z,4.20
2022-09-22T02:46:16.414Z,4.30
2022-09-22T02:48:49.516Z,4.90
2022-09-22T02:51:18.816Z,5.30
2022-09-22T02:53:46.673Z,4.60
2022-09-22T02:56:14.504Z,4.80
2022-09-22T02:58:42.617Z,5.00
2022-09-22T03:01:11.263Z,5.60
2022-09-22T03:03:39.077Z,6.40
2022-09-22T03:06:06.952Z,5.30
2022-09-22T03:08:34.858Z,5.30
2022-09-22T03:11:03.530Z,5.50
2022-09-22T03:13:31.341Z,5.10
2022-09-22T03:15:59.146Z,5.50
2022-09-22T03:18:26.925Z,5.70
2022-09-22T03:20:55.558Z,6.00
2022-09-22T03:23:23.289Z,5.60
2022-09-22T03:25:51.038Z,6.10
2022-09-22T03:28:19.430Z,6.10
2022-09-22T03:30:47.774Z,6.00
2022-09-22T03:33:15.490Z,5.90
2022-09-22T03:35:43.807Z,5.90
2022-09-22T03:38:11.584Z,6.30
2022-09-22T03:40:39.662Z,6.10
2022-09-22T03:43:07.591Z,6.10
2022-09-22T03:45:35.982Z,5.80
2022-09-22T03:48:03.961Z,6.50
2022-09-22T03:50:34.651Z,6.00
2022-09-22T03:53:04.598Z,6.70
2022-09-22T03:55:32.489Z,6.30
2022-09-22T03:58:00.413Z,6.40
2022-09-22T04:00:28.726Z,6.30
2022-09-22T04:02:58.283Z,5.90
2022-09-22T04:05:26.039Z,6.40
2022-09-22T04:07:53.955Z,6.20
2022-09-22T04:10:22.519Z,6.40
2022-09-22T04:12:51.658Z,7.30
2022-09-22T04:15:25.001Z,6.40
2022-09-22T04:17:54.326Z,7.30
2022-09-22T04:20:22.219Z,7.20
2022-09-22T04:22:50.365Z,6.70
2022-09-22T04:25:18.314Z,7.60
2022-09-22T04:27:47.591Z,7.00
2022-09-22T04:30:15.839Z,7.20
2022-09-22T04:32:44.637Z,6.60
2022-09-22T04:35:12.445Z,6.80
2022-09-22T04:37:40.198Z,7.00
2022-09-22T04:40:08.789Z,8.00
2022-09-22T04:42:36.586Z,8.00
2022-09-22T04:45:33.967Z,8.00
2022-09-22T04:48:05.650Z,8.80
2022-09-22T04:50:33.426Z,10.60
2022-09-22T04:53:08.080Z,10.70
2022-09-22T04:55:36.239Z,10.30
2022-09-22T04:58:04.853Z,10.00
2022-09-22T05:00:32.732Z,11.20
2022-09-22T05:03:02.235Z,9.50
2022-09-22T05:05:30.127Z,9.00
2022-09-22T05:08:01.372Z,12.20
2022-09-22T05:10:32.400Z,8.50
2022-09-22T05:13:00.218Z,8.70
2022-09-22T05:15:28.051Z,8.20
2022-09-22T05:17:55.853Z,8.50
2022-09-22T05:20:24.187Z,7.40
2022-09-22T05:22:53.302Z,9.00
2022-09-22T05:25:21.473Z,8.20
2022-09-22T05:27:52.015Z,13.50
2022-09-22T05:30:23.504Z,17.80
2022-09-22T05:32:51.612Z,16.60
2022-09-22T05:35:25.502Z,17.60
2022-09-22T05:37:54.144Z,15.90
2022-09-22T05:40:26.326Z,13.40
2022-09-22T05:42:55.752Z,17.90
2022-09-22T05:45:24.160Z,21.70
2022-09-22T05:47:53.112Z,15.50
2022-09-22T05:50:23.923Z,10.70
2022-09-22T05:53:01.363Z,11.40
2022-09-22T05:55:29.233Z,8.50
2022-09-22T05:57:58.556Z,8.90
2022-09-22T06:00:28.383Z,11.20
2022-09-22T06:02:57.550Z,8.10
2022-09-22T06:05:26.247Z,9.30
2022-09-22T06:08:03.750Z,10.00
2022-09-22T06:10:33.532Z,7.30
2022-09-22T06:13:05.620Z,6.70
2022-09-22T06:15:36.426Z,6.30
2022-09-22T06:18:14.661Z,5.70
2022-09-22T06:20:43.244Z,6.10
2022-09-22T06:23:13.678Z,5.50
2022-09-22T06:25:43.597Z,6.30
2022-09-22T06:28:14.990Z,5.80
2022-09-22T06:30:42.929Z,5.50
2022-09-22T06:33:11.810Z,6.20
2022-09-22T06:35:43.390Z,5.30
2022-09-22T06:38:15.165Z,6.60
2022-09-22T06:40:44.587Z,6.60
2022-09-22T06:43:24.104Z,5.40
2022-09-22T06:45:53.473Z,5.80
2022-09-22T06:48:24.102Z,6.40
2022-09-22T06:50:54.519Z,5.80
2022-09-22T06:53:27.307Z,5.90
2022-09-22T06:58:25.262Z,7.00
2022-09-22T07:00:54.036Z,6.80
2022-09-22T07:03:24.498Z,7.10
2022-09-22T07:05:57.636Z,6.80
2022-09-22T07:08:26.195Z,7.70
2022-09-22T07:10:59.607Z,7.60
2022-09-22T07:13:48.477Z,7.90
2022-09-22T07:16:18.447Z,8.00
2022-09-22T07:18:48.939Z,8.10
2022-09-22T07:21:30.171Z,8.70
2022-09-22T07:23:58.380Z,8.10
2022-09-22T07:26:32.779Z,8.10
2022-09-22T07:29:04.134Z,8.00
2022-09-22T07:31:34.951Z,8.20
2022-09-22T07:34:03.614Z,9.50
2022-09-22T07:36:43.890Z,9.70
2022-09-22T07:39:17.199Z,9.10
2022-09-22T07:41:48.310Z,8.40
2022-09-22T07:44:35.648Z,8.30
2022-09-22T07:47:05.536Z,9.00
2022-09-22T07:49:33.546Z,8.30
2022-09-22T07:52:01.519Z,8.50
2022-09-22T07:54:29.361Z,8.20
2022-09-22T07:56:59.069Z,7.40
2022-09-22T07:59:27.707Z,7.60
2022-09-22T08:02:21.313Z,7.90
2022-09-22T08:04:49.608Z,7.40
2022-09-22T08:07:17.746Z,8.60
2022-09-22T08:09:45.479Z,7.70
2022-09-22T08:12:15.162Z,7.80
2022-09-22T08:14:45.355Z,6.70
2022-09-22T08:17:14.951Z,6.50
2022-09-22T08:19:42.892Z,7.30
2022-09-22T08:22:11.015Z,6.60
2022-09-22T08:24:38.766Z,5.80
2022-09-22T08:27:06.514Z,6.10
2022-09-22T08:29:36.683Z,6.00
2022-09-22T08:32:04.730Z,5.80
2022-09-22T08:34:32.659Z,5.90
2022-09-22T08:37:00.923Z,6.00
2022-09-22T08:39:28.867Z,7.00
2022-09-22T08:42:23.264Z,6.80
2022-09-22T08:44:52.691Z,6.70
2022-09-22T08:47:50.609Z,6.40
2022-09-22T08:50:45.567Z,6.80
2022-09-22T08:53:23.537Z,5.90
2022-09-22T08:56:05.656Z,6.30
2022-09-22T08:59:09.075Z,5.80
2022-09-22T09:01:43.195Z,4.80
2022-09-22T09:04:58.178Z,5.10
2022-09-22T09:07:58.984Z,5.30
2022-09-22T09:10:46.329Z,5.50
2022-09-22T09:13:40.782Z,4.80
2022-09-22T09:16:21.006Z,5.60
2022-09-22T09:19:00.994Z,4.60
2022-09-22T09:21:33.910Z,4.30
2022-09-22T09:27:07.011Z,4.40
2022-09-22T09:29:44.699Z,6.50
2022-09-22T09:32:22.756Z,5.60
2022-09-22T09:34:55.735Z,5.00
2022-09-22T09:37:25.629Z,3.60
2022-09-22T09:40:02.949Z,2.50
2022-09-22T09:42:37.961Z,2.40
2022-09-22T09:45:07.170Z,2.80
2022-09-22T09:48:03.197Z,2.70
2022-09-22T09:50:32.477Z,2.50
2022-09-22T09:53:00.928Z,3.30
2022-09-22T09:55:29.680Z,1.90
2022-09-22T09:58:32.815Z,1.90
2022-09-22T10:01:07.289Z,1.90
2022-09-22T10:03:42.488Z,1.60
2022-09-22T10:06:12.005Z,1.70
2022-09-22T10:08:49.866Z,1.70
2022-09-22T10:11:31.596Z,2.70
2022-09-22T10:14:00.863Z,2.10
2022-09-22T10:16:31.082Z,2.00
2022-09-22T10:19:21.302Z,1.80
2022-09-22T10:21:49.980Z,1.50
2022-09-22T10:24:32.080Z,1.90
2022-09-22T10:27:03.970Z,1.50
2022-09-22T10:29:35.698Z,1.30
2022-09-22T10:32:15.312Z,1.40
2022-09-22T10:34:51.779Z,1.40
2022-09-22T10:37:26.487Z,1.30
2022-09-22T10:40:00.591Z,1.60
2022-09-22T10:42:45.663Z,1.70
2022-09-22T10:45:20.433Z,1.70
2022-09-22T10:50:57.960Z,1.60
2022-09-22T10:53:58.156Z,1.60
2022-09-22T10:56:46.880Z,0.90
2022-09-22T10:59:47.961Z,0.90
2022-09-22T11:02:48.212Z,0.80
2022-09-22T11:06:14.009Z,1.00
2022-09-22T11:09:20.798Z,1.20
2022-09-22T11:12:18.075Z,0.90
2022-09-22T11:15:18.393Z,0.80
2022-09-22T11:17:58.781Z,0.60
2022-09-22T11:20:34.568Z,1.20
2022-09-22T11:23:25.355Z,0.90
2022-09-22T11:26:15.645Z,1.00
2022-09-22T11:29:09.148Z,0.90
2022-09-22T11:31:49.075Z,0.80
2022-09-22T11:34:47.044Z,0.90
2022-09-22T11:37:40.427Z,0.90
2022-09-22T11:40:27.649Z,0.90
2022-09-22T11:43:09.499Z,0.90
2022-09-22T11:45:56.212Z,2.90
2022-09-22T11:48:59.367Z,1.00
2022-09-22T11:51:46.199Z,1.10
2022-09-22T11:54:33.277Z,1.10
2022-09-22T11:57:09.888Z,0.90
2022-09-22T12:03:03.552Z,1.60
2022-09-22T12:05:50.039Z,1.40
2022-09-22T12:08:23.739Z,1.10
2022-09-22T12:10:52.992Z,1.10
2022-09-22T12:13:28.369Z,1.40
2022-09-22T12:16:07.269Z,1.00
2022-09-22T12:19:01.443Z,0.80
2022-09-22T12:24:04.167Z,0.90
2022-09-22T12:26:34.173Z,0.80
2022-09-22T12:29:25.410Z,0.90
2022-09-22T12:31:58.820Z,0.80
2022-09-22T12:34:34.575Z,0.80
2022-09-22T12:37:14.862Z,0.90
2022-09-22T12:39:48.751Z,0.80
2022-09-22T12:42:39.555Z,0.70
2022-09-22T12:45:25.810Z,0.80
2022-09-22T12:47:57.753Z,0.70
2022-09-22T12:50:33.234Z,0.60
2022-09-22T12:53:04.671Z,0.70
2022-09-22T12:55:40.628Z,0.80
2022-09-22T12:58:20.446Z,1.00
2022-09-22T13:00:53.919Z,0.70
2022-09-22T13:03:26.484Z,0.60
2022-09-22T13:06:01.372Z,0.70
2022-09-22T13:08:35.830Z,0.60
2022-09-22T13:11:06.289Z,0.50
2022-09-22T13:13:39.558Z,0.60
2022-09-22T13:16:50.026Z,0.80
2022-09-22T13:19:17.904Z,0.70
2022-09-22T13:21:47.707Z,0.50
2022-09-22T13:24:23.666Z,0.60
2022-09-22T13:27:04.844Z,0.60
2022-09-22T13:29:32.953Z,0.80
2022-09-22T13:32:18.542Z,0.70
2022-09-22T13:34:48.524Z,0.60
2022-09-22T13:37:23.974Z,0.60
2022-09-22T13:39:55.931Z,0.80
2022-09-22T13:42:32.046Z,0.90
2022-09-22T13:45:07.950Z,0.80
2022-09-22T13:47:36.924Z,0.70
2022-09-22T13:50:13.015Z,0.50
2022-09-22T13:52:41.619Z,0.60
2022-09-22T13:55:48.019Z,0.60
2022-09-22T13:58:35.976Z,0.70
2022-09-22T14:01:13.879Z,0.70
2022-09-22T14:03:43.856Z,0.60
2022-09-22T14:06:24.565Z,0.40
2022-09-22T14:08:53.763Z,0.60
2022-09-22T14:11:24.787Z,0.50
2022-09-22T14:14:00.224Z,0.70
2022-09-22T14:16:46.388Z,0.60
2022-09-22T14:19:17.362Z,0.70
2022-09-22T14:21:51.315Z,0.50
2022-09-22T14:24:19.994Z,0.80
2022-09-22T14:27:04.011Z,0.50
2022-09-22T14:32:24.909Z,0.70
2022-09-22T14:35:00.334Z,0.60
2022-09-22T14:37:40.891Z,0.60
2022-09-22T14:40:21.192Z,0.60
2022-09-22T14:43:03.771Z,0.90
2022-09-22T14:45:32.979Z,0.80
2022-09-22T14:48:13.958Z,1.00
2022-09-22T14:50:47.878Z,0.40
2022-09-22T14:53:23.095Z,0.60
2022-09-22T14:55:56.063Z,0.90
2022-09-22T14:58:28.101Z,0.80
2022-09-22T15:01:26.063Z,0.80
2022-09-22T15:04:04.937Z,1.60
2022-09-22T15:06:37.279Z,1.60
2022-09-22T15:09:13.420Z,0.80
2022-09-22T15:12:02.502Z,0.70
2022-09-22T15:14:57.011Z,1.10
2022-09-22T15:18:02.477Z,1.40
2022-09-22T15:20:42.895Z,0.90
2022-09-22T15:23:27.618Z,0.70
2022-09-22T15:25:56.308Z,0.60
2022-09-22T15:28:27.209Z,0.60
2022-09-22T15:30:58.759Z,0.60
2022-09-22T15:33:27.106Z,0.70
2022-09-22T15:36:01.788Z,0.70
2022-09-22T15:38:32.879Z,0.80
2022-09-22T15:41:02.033Z,0.60
2022-09-22T15:43:33.690Z,0.50
2022-09-22T15:46:04.995Z,0.80
2022-09-22T15:48:37.704Z,1.60
2022-09-22T15:51:12.973Z,2.30
2022-09-22T15:53:41.836Z,1.60
2022-09-22T15:56:18.617Z,1.40
2022-09-22T15:58:49.813Z,1.30
2022-09-22T16:01:18.370Z,1.30
2022-09-22T16:03:46.292Z,1.50
2022-09-22T16:06:18.233Z,2.60
2022-09-22T16:08:48.304Z,3.10
2022-09-22T16:11:23.407Z,2.00
2022-09-22T16:13:51.603Z,1.10
2022-09-22T16:16:19.766Z,1.30
2022-09-22T16:18:47.676Z,1.10
2022-09-22T16:21:20.048Z,1.30
2022-09-22T16:23:49.393Z,1.50
2022-09-22T16:26:17.643Z,1.30
2022-09-22T16:28:45.794Z,1.30
2022-09-22T16:31:14.492Z,1.80
2022-09-22T16:33:44.092Z,1.60
2022-09-22T16:36:13.409Z,4.00
2022-09-22T16:38:41.876Z,6.30
2022-09-22T16:41:26.064Z,7.60
2022-09-22T16:43:55.877Z,8.30
2022-09-22T16:46:28.700Z,11.20
2022-09-22T16:49:00.761Z,12.00
2022-09-22T16:51:31.203Z,13.40
2022-09-22T16:54:03.226Z,11.50
2022-09-22T16:56:33.625Z,12.10
2022-09-22T16:59:02.986Z,13.00
2022-09-22T17:01:38.311Z,12.10
2022-09-22T17:04:10.612Z,11.40
2022-09-22T17:06:41.124Z,9.10
2022-09-22T17:09:11.000Z,7.30
2022-09-22T17:11:50.093Z,7.50
2022-09-22T17:14:25.604Z,6.00
2022-09-22T17:16:56.794Z,6.80
2022-09-22T17:19:27.991Z,6.40
2022-09-22T17:21:56.775Z,10.10
2022-09-22T17:24:27.054Z,19.40
2022-09-22T17:26:57.363Z,14.10
2022-09-22T17:29:30.045Z,14.40
2022-09-22T17:32:02.910Z,19.90
2022-09-22T17:34:37.046Z,9.80
2022-09-22T17:37:05.714Z,5.40
2022-09-22T17:39:34.028Z,5.50
2022-09-22T17:42:03.037Z,7.00
2022-09-22T17:44:37.421Z,7.10
2022-09-22T17:47:26.156Z,6.80
2022-09-22T17:50:12.975Z,6.50
2022-09-22T17:53:00.094Z,7.40
2022-09-22T17:55:28.593Z,10.70
2022-09-22T17:57:57.662Z,16.20
2022-09-22T18:00:26.462Z,20.80
2022-09-22T18:02:55.328Z,23.00
2022-09-22T18:05:27.021Z,24.50
2022-09-22T18:07:58.099Z,23.50
2022-09-22T18:10:31.275Z,25.20
2022-09-22T18:13:01.848Z,25.30
2022-09-22T18:15:31.485Z,24.60
2022-09-22T18:18:00.702Z,24.30
2022-09-22T18:20:28.839Z,24.60
2022-09-22T18:22:58.172Z,26.10
2022-09-22T18:25:28.522Z,27.20
2022-09-22T18:27:57.215Z,25.50
2022-09-22T18:30:27.155Z,26.40
2022-09-22T18:32:56.417Z,23.90
2022-09-22T18:35:28.057Z,21.00
2022-09-22T18:37:56.780Z,18.90
2022-09-22T18:40:24.838Z,20.60
2022-09-22T18:42:54.779Z,20.90
2022-09-22T18:45:23.509Z,28.10
2022-09-22T18:47:52.378Z,22.50
2022-09-22T18:50:20.789Z,17.80
2022-09-22T18:52:56.969Z,17.20
2022-09-22T18:55:24.909Z,19.50
2022-09-22T18:57:54.303Z,31.20
2022-09-22T19:00:22.286Z,31.80
2022-09-22T19:02:52.564Z,30.10
2022-09-22T19:05:21.891Z,32.30
2022-09-22T19:07:51.199Z,27.90
2022-09-22T19:10:23.703Z,28.20
2022-09-22T19:12:52.137Z,24.40
2022-09-22T19:15:23.830Z,24.50
2022-09-22T19:17:53.700Z,24.00
2022-09-22T19:20:30.119Z,21.70
2022-09-22T19:23:11.698Z,19.40
2022-09-22T19:25:46.461Z,17.50
2022-09-22T19:28:15.936Z,18.00
2022-09-22T19:30:46.747Z,15.30
2022-09-22T19:33:15.542Z,17.40
2022-09-22T19:35:44.330Z,19.00
2022-09-22T19:38:13.207Z,20.60
2022-09-22T19:40:41.789Z,19.90
2022-09-22T19:43:11.267Z,22.90
2022-09-22T19:45:42.572Z,22.30
2022-09-22T19:48:12.474Z,21.00
2022-09-22T19:50:42.344Z,20.50
2022-09-22T19:53:10.906Z,20.70
2022-09-22T19:55:40.134Z,21.00
2022-09-22T19:58:08.505Z,22.40
2022-09-22T20:00:39.090Z,23.30
2022-09-22T20:03:08.315Z,22.80
2022-09-22T20:05:40.481Z,22.40
2022-09-22T20:08:21.881Z,20.80
2022-09-22T20:11:16.314Z,22.30
2022-09-22T20:14:04.406Z,22.70
2022-09-22T20:16:34.557Z,20.40
2022-09-22T20:19:03.374Z,17.30
2022-09-22T20:21:35.560Z,13.40
2022-09-22T20:24:06.871Z,12.50
2022-09-22T20:26:37.124Z,12.50
2022-09-22T20:29:09.920Z,11.20
2022-09-22T20:31:39.932Z,10.30
2022-09-22T20:34:12.982Z,9.50
2022-09-22T20:36:43.402Z,10.20
2022-09-22T20:39:15.628Z,9.30
2022-09-22T20:41:44.760Z,9.10
2022-09-22T20:44:15.042Z,8.30
2022-09-22T20:46:44.617Z,9.40
2022-09-22T20:49:13.861Z,7.60
2022-09-22T20:51:43.869Z,10.30
2022-09-22T20:54:16.223Z,9.70
2022-09-22T20:56:45.446Z,8.80
2022-09-22T20:59:16.015Z,9.20
2022-09-22T21:01:44.187Z,9.50
2022-09-22T21:04:16.129Z,12.90
2022-09-22T21:06:47.010Z,9.10
2022-09-22T21:09:33.734Z,9.30
2022-09-22T21:12:03.095Z,9.70
2022-09-22T21:14:33.793Z,11.50
2022-09-22T21:17:08.827Z,12.50
2022-09-22T21:19:38.843Z,11.00
2022-09-22T21:22:08.168Z,11.50
2022-09-22T21:24:44.932Z,12.00
2022-09-22T21:27:14.592Z,18.80
2022-09-22T21:29:43.380Z,17.90
2022-09-22T21:32:11.971Z,17.40
2022-09-22T21:34:41.993Z,18.20
2022-09-22T21:37:10.176Z,18.20
2022-09-22T21:39:38.141Z,16.60
2022-09-22T21:42:06.261Z,21.50
2022-09-22T21:44:34.447Z,18.00
2022-09-22T21:47:02.497Z,17.10
2022-09-22T21:49:30.541Z,16.30
2022-09-22T21:52:01.273Z,17.20
2022-09-22T21:54:31.783Z,14.70
2022-09-22T21:57:02.818Z,15.10
2022-09-22T21:59:31.362Z,14.30
2022-09-22T22:01:59.826Z,16.50
2022-09-22T22:04:28.050Z,16.50
2022-09-22T22:06:56.166Z,15.30
2022-09-22T22:09:26.148Z,14.50
2022-09-22T22:11:56.989Z,13.00
2022-09-22T22:14:32.755Z,14.20
2022-09-22T22:17:02.486Z,12.20
2022-09-22T22:19:30.424Z,11.90
2022-09-22T22:21:58.270Z,10.80
2022-09-22T22:24:29.564Z,10.40
2022-09-22T22:27:02.488Z,11.80
2022-09-22T22:29:35.125Z,10.90
2022-09-22T22:32:09.377Z,10.00
2022-09-22T22:35:07.574Z,9.90
2022-09-22T22:37:35.494Z,10.20
2022-09-22T22:40:04.202Z,9.80
2022-09-22T22:42:32.644Z,9.20
2022-09-22T22:45:00.914Z,9.20
2022-09-22T22:47:28.867Z,9.50
2022-09-22T22:49:57.044Z,9.70
2022-09-22T22:52:24.869Z,9.10
2022-09-22T22:54:53.010Z,9.70
2022-09-22T22:57:21.316Z,10.00
2022-09-22T22:59:49.125Z,10.20
2022-09-22T23:02:17.239Z,10.10
2022-09-22T23:04:44.938Z,9.10
2022-09-22T23:07:12.717Z,8.60
2022-09-22T23:09:41.696Z,8.50
2022-09-22T23:12:10.722Z,8.40
2022-09-22T23:14:38.419Z,7.80
2022-09-22T23:17:06.532Z,8.10
2022-09-22T23:19:34.594Z,7.80
2022-09-22T23:22:02.991Z,7.50
2022-09-22T23:24:33.932Z,8.10
2022-09-22T23:27:02.753Z,7.90
2022-09-22T23:29:30.862Z,7.40
2022-09-22T23:31:58.662Z,7.50
2022-09-22T23:34:27.602Z,7.70
2022-09-22T23:36:56.358Z,7.10
2022-09-22T23:39:24.278Z,7.30
2022-09-22T23:41:52.445Z,7.30
2022-09-22T23:44:20.751Z,7.10
2022-09-22T23:46:50.406Z,7.10
2022-09-22T23:49:18.477Z,7.20
2022-09-22T23:51:46.323Z,6.70
2022-09-22T23:54:14.335Z,7.00
2022-09-22T23:56:43.529Z,6.50
2022-09-22T23:59:11.310Z,6.80
